Time;durP1;ratioP1;P1;durP2;ratioP2;P2;SDS_P1;SDS_P2;PMS_P1;PMS_P2;Temp;Humidity;BMP_temperature;BMP_pressure;BME280_temperature;BME280_humidity;BME280_pressure;Samples;Min_cycle;Max_cycle;Signal;HPM_P1;HPM_P2
2023/12/08 00:02:15;;;;;;;26.80;12.52;;;1.10;99.90;;;;;;5054131;28;20040;-68
2023/12/08 00:04:40;;;;;;;29.15;12.80;;;1.20;99.90;;;;;;5026696;28;20485;-69
2023/12/08 00:07:06;;;;;;;29.23;13.13;;;1.10;99.90;;;;;;5031229;28;20088;-69
2023/12/08 00:09:32;;;;;;;25.25;11.48;;;1.20;99.90;;;;;;5030333;28;20049;-68
2023/12/08 00:11:57;;;;;;;26.73;12.43;;;1.20;99.90;;;;;;5026839;28;20123;-69
2023/12/08 00:14:23;;;;;;;26.73;11.35;;;1.20;99.90;;;;;;5037115;28;20900;-68
2023/12/08 00:16:49;;;;;;;23.73;11.57;;;1.20;99.90;;;;;;5043107;28;20071;-68
2023/12/08 00:19:15;;;;;;;26.48;12.43;;;1.20;99.90;;;;;;5033253;28;20049;-68
2023/12/08 00:21:40;;;;;;;28.33;13.27;;;1.20;99.90;;;;;;5038511;28;20053;-72
2023/12/08 00:24:06;;;;;;;28.73;11.68;;;1.20;99.90;;;;;;5045620;28;20119;-68
2023/12/08 00:26:31;;;;;;;27.38;12.63;;;1.20;99.90;;;;;;5036026;28;20049;-69
2023/12/08 00:28:57;;;;;;;26.58;12.23;;;1.20;99.90;;;;;;5031575;28;20048;-68
2023/12/08 00:31:23;;;;;;;27.33;12.77;;;1.20;99.90;;;;;;5022027;28;20052;-69
2023/12/08 00:33:48;;;;;;;25.77;11.43;;;1.20;99.90;;;;;;5028580;28;20469;-69
2023/12/08 00:36:18;;;;;;;27.02;12.48;;;1.20;99.90;;;;;;5034546;28;20386;-69
2023/12/08 00:38:44;;;;;;;27.23;12.23;;;1.20;99.90;;;;;;5034920;28;20497;-69
2023/12/08 00:41:10;;;;;;;29.60;12.05;;;1.10;99.90;;;;;;5047657;28;20080;-69
2023/12/08 00:43:36;;;;;;;27.20;12.07;;;1.10;99.90;;;;;;5039177;28;20202;-68
2023/12/08 00:46:02;;;;;;;28.58;12.38;;;1.10;99.90;;;;;;5031427;28;20164;-70
2023/12/08 00:48:27;;;;;;;27.67;12.43;;;1.10;99.90;;;;;;5030217;28;20048;-68
2023/12/08 00:50:53;;;;;;;25.73;12.38;;;1.10;99.90;;;;;;5039273;28;20112;-69
2023/12/08 00:53:19;;;;;;;27.45;12.52;;;1.10;99.90;;;;;;5030786;28;20144;-68
2023/12/08 00:55:44;;;;;;;28.25;13.20;;;1.10;99.90;;;;;;5045905;28;20103;-68
2023/12/08 00:58:11;;;;;;;30.52;13.00;;;1.10;99.90;;;;;;5029883;28;20394;-68
2023/12/08 01:00:37;;;;;;;29.52;13.73;;;1.10;99.90;;;;;;5034852;28;20110;-69
2023/12/08 01:03:03;;;;;;;25.08;13.15;;;1.10;99.90;;;;;;5037068;28;20129;-69
2023/12/08 01:05:28;;;;;;;28.13;12.65;;;1.10;99.90;;;;;;5036339;28;20078;-68
2023/12/08 01:07:54;;;;;;;29.55;12.88;;;1.10;99.90;;;;;;5039313;28;20074;-68
2023/12/08 01:10:20;;;;;;;29.13;14.00;;;1.10;99.90;;;;;;5030598;28;20080;-69
2023/12/08 01:12:46;;;;;;;28.30;12.70;;;1.10;99.90;;;;;;5029445;28;20045;-69
2023/12/08 01:15:13;;;;;;;27.73;14.02;;;1.10;99.90;;;;;;5030510;28;20068;-71
2023/12/08 01:17:38;;;;;;;28.63;12.63;;;1.10;99.90;;;;;;5031156;28;20072;-69
2023/12/08 01:20:05;;;;;;;24.58;12.13;;;1.10;99.90;;;;;;5038459;28;20400;-71
2023/12/08 01:22:30;;;;;;;26.85;13.18;;;1.10;99.90;;;;;;5017479;28;20080;-69
2023/12/08 01:24:56;;;;;;;27.13;12.55;;;1.10;99.90;;;;;;5037491;28;20083;-70
2023/12/08 01:27:22;;;;;;;28.40;13.82;;;1.10;99.90;;;;;;5035304;28;20434;-68
2023/12/08 01:29:48;;;;;;;27.08;12.45;;;1.10;99.90;;;;;;5021964;28;20065;-69
2023/12/08 01:32:14;;;;;;;28.92;13.18;;;1.10;99.90;;;;;;5046310;28;20134;-70
2023/12/08 01:34:40;;;;;;;29.85;13.10;;;1.10;99.90;;;;;;5042276;28;20081;-68
2023/12/08 01:37:06;;;;;;;31.35;12.68;;;1.20;99.90;;;;;;5042764;28;20053;-72
2023/12/08 01:39:31;;;;;;;26.90;13.05;;;1.20;99.90;;;;;;5032210;28;20055;-67
2023/12/08 01:41:57;;;;;;;29.10;12.38;;;1.20;99.90;;;;;;5043396;28;20606;-69
2023/12/08 01:44:22;;;;;;;28.48;13.00;;;1.20;99.90;;;;;;5030670;28;20029;-70
2023/12/08 01:46:49;;;;;;;29.13;12.57;;;1.10;99.90;;;;;;5029748;28;20136;-69
2023/12/08 01:49:16;;;;;;;29.58;12.82;;;1.10;99.90;;;;;;5038990;28;20044;-72
2023/12/08 01:51:45;;;;;;;28.65;11.32;;;1.10;99.90;;;;;;5033834;28;20152;-67
2023/12/08 01:54:13;;;;;;;25.08;11.25;;;1.10;99.90;;;;;;5029401;28;20114;-71
2023/12/08 01:56:40;;;;;;;32.58;12.73;;;1.10;99.90;;;;;;5031953;28;20076;-68
2023/12/08 01:59:06;;;;;;;31.13;13.07;;;1.10;99.90;;;;;;5031222;28;20457;-72
2023/12/08 02:01:32;;;;;;;26.42;12.00;;;1.10;99.90;;;;;;5033615;28;20041;-70
2023/12/08 02:03:58;;;;;;;30.35;12.90;;;1.10;99.90;;;;;;5029514;28;20606;-68
2023/12/08 02:06:23;;;;;;;31.48;13.52;;;1.10;99.90;;;;;;5048427;28;20045;-69
2023/12/08 02:08:49;;;;;;;28.13;13.02;;;1.10;99.90;;;;;;5037722;28;20037;-68
2023/12/08 02:11:16;;;;;;;26.50;12.73;;;1.10;99.90;;;;;;5039205;28;20052;-71
2023/12/08 02:13:42;;;;;;;27.83;12.38;;;1.10;99.90;;;;;;5040729;28;20049;-69
2023/12/08 02:16:18;;;;;;;27.67;12.60;;;1.10;99.90;;;;;;5043503;28;20071;-69
2023/12/08 02:18:44;;;;;;;32.95;13.48;;;1.10;99.90;;;;;;5032460;28;20509;-71
2023/12/08 02:21:13;;;;;;;31.02;12.32;;;1.00;99.90;;;;;;5031171;28;20038;-72
2023/12/08 02:23:43;;;;;;;28.35;13.23;;;1.00;99.90;;;;;;5044267;28;20044;-70
2023/12/08 02:26:10;;;;;;;28.10;13.77;;;1.10;99.90;;;;;;5030121;28;20107;-68
2023/12/08 02:28:36;;;;;;;32.10;13.60;;;1.00;99.90;;;;;;5029375;28;20566;-68
2023/12/08 02:31:05;;;;;;;27.55;12.18;;;1.10;99.90;;;;;;5035264;28;20038;-68
2023/12/08 02:33:32;;;;;;;29.10;12.05;;;1.00;99.90;;;;;;5030736;28;20049;-69
2023/12/08 02:36:01;;;;;;;22.55;11.85;;;1.00;99.90;;;;;;5028939;28;20054;-70
2023/12/08 02:38:28;;;;;;;23.20;12.13;;;1.10;99.90;;;;;;5037765;28;20075;-72
2023/12/08 02:40:55;;;;;;;25.15;12.35;;;1.10;99.90;;;;;;5034075;28;20048;-68
2023/12/08 02:43:21;;;;;;;26.98;11.60;;;1.10;99.90;;;;;;5027787;28;20405;-72
2023/12/08 02:45:47;;;;;;;26.52;11.68;;;1.00;99.90;;;;;;5017259;28;20044;-69
2023/12/08 02:48:12;;;;;;;31.50;12.82;;;1.00;99.90;;;;;;5038462;28;20433;-71
2023/12/08 02:50:39;;;;;;;29.27;12.20;;;1.10;99.90;;;;;;5037633;28;20511;-69
2023/12/08 02:53:05;;;;;;;27.92;13.10;;;1.10;99.90;;;;;;5042428;28;20041;-68
2023/12/08 02:55:30;;;;;;;30.17;12.55;;;1.00;99.90;;;;;;5039265;28;20041;-70
2023/12/08 02:57:56;;;;;;;29.67;11.93;;;1.00;99.90;;;;;;5044013;28;20048;-70
2023/12/08 03:00:22;;;;;;;24.70;11.48;;;1.10;99.90;;;;;;5040666;28;20056;-69
2023/12/08 03:02:47;;;;;;;27.35;11.57;;;1.00;99.90;;;;;;5034412;28;20045;-72
2023/12/08 03:05:13;;;;;;;30.55;13.50;;;1.10;99.90;;;;;;5027741;28;20132;-68
2023/12/08 03:07:38;;;;;;;29.15;12.68;;;1.10;99.90;;;;;;5036553;28;20037;-68
2023/12/08 03:10:05;;;;;;;29.65;12.38;;;1.00;99.90;;;;;;5031225;28;20120;-69
2023/12/08 03:12:30;;;;;;;27.20;12.85;;;1.00;99.90;;;;;;5036359;28;20052;-70
2023/12/08 03:14:56;;;;;;;26.23;12.45;;;1.00;99.90;;;;;;5046050;28;20044;-68
2023/12/08 03:17:22;;;;;;;25.75;11.60;;;1.00;99.90;;;;;;5038049;28;20425;-69
2023/12/08 03:19:47;;;;;;;28.70;12.35;;;1.00;99.90;;;;;;5041154;28;20041;-68
2023/12/08 03:22:13;;;;;;;27.00;11.82;;;1.00;99.90;;;;;;5044093;28;20037;-68
2023/12/08 03:24:38;;;;;;;28.17;12.93;;;1.00;99.90;;;;;;5042347;28;20539;-67
2023/12/08 03:27:04;;;;;;;28.00;12.95;;;1.00;99.90;;;;;;5039484;28;20148;-68
2023/12/08 03:29:29;;;;;;;26.35;11.93;;;1.00;99.90;;;;;;5024027;28;20116;-68
2023/12/08 03:31:55;;;;;;;28.00;12.20;;;1.00;99.90;;;;;;5031554;28;20073;-67
2023/12/08 03:34:21;;;;;;;26.55;12.57;;;1.00;99.90;;;;;;5020995;28;20037;-68
2023/12/08 03:36:46;;;;;;;29.20;12.70;;;1.00;99.90;;;;;;5043841;28;20036;-68
2023/12/08 03:39:12;;;;;;;22.70;10.55;;;1.10;99.90;;;;;;5035419;28;20493;-70
2023/12/08 03:41:37;;;;;;;25.75;11.65;;;1.10;99.90;;;;;;5029707;28;20103;-69
2023/12/08 03:44:03;;;;;;;27.75;12.45;;;1.10;99.90;;;;;;5036196;28;20477;-69
2023/12/08 03:46:29;;;;;;;24.85;12.20;;;1.10;99.90;;;;;;5040447;28;20040;-68
2023/12/08 03:48:54;;;;;;;27.20;11.27;;;1.10;99.90;;;;;;5041569;28;20186;-68
2023/12/08 03:51:20;;;;;;;25.83;11.68;;;1.10;99.90;;;;;;5027597;28;20041;-68
2023/12/08 03:53:45;;;;;;;24.52;11.80;;;1.10;99.90;;;;;;5032523;28;20034;-69
2023/12/08 03:56:11;;;;;;;27.48;12.30;;;1.00;99.90;;;;;;5023862;28;20055;-70
2023/12/08 03:58:36;;;;;;;24.83;11.50;;;1.00;99.90;;;;;;5038937;28;20049;-68
2023/12/08 04:01:02;;;;;;;26.92;12.23;;;1.00;99.90;;;;;;5026892;28;20110;-70
2023/12/08 04:03:28;;;;;;;26.65;11.43;;;0.90;99.90;;;;;;5012962;28;20030;-71
2023/12/08 04:05:53;;;;;;;27.50;12.48;;;0.90;99.90;;;;;;5044003;28;20036;-69
2023/12/08 04:08:19;;;;;;;25.10;12.50;;;0.80;99.90;;;;;;5028813;28;20104;-71
2023/12/08 04:10:45;;;;;;;27.25;11.57;;;0.80;99.90;;;;;;5040146;28;20041;-73
2023/12/08 04:13:11;;;;;;;31.40;13.80;;;0.70;99.90;;;;;;5027554;28;20041;-77
2023/12/08 04:15:37;;;;;;;29.52;13.00;;;0.70;99.90;;;;;;5043651;28;20328;-73
2023/12/08 04:18:02;;;;;;;28.80;13.25;;;0.60;99.90;;;;;;5045905;28;20099;-72
2023/12/08 04:20:28;;;;;;;33.17;13.25;;;0.60;99.90;;;;;;5029615;28;20041;-74
2023/12/08 04:22:54;;;;;;;34.40;13.18;;;0.60;99.90;;;;;;5062282;28;20668;-73
2023/12/08 04:25:19;;;;;;;32.13;12.63;;;0.50;99.90;;;;;;5041469;28;20037;-74
2023/12/08 04:27:45;;;;;;;35.47;13.63;;;0.50;99.90;;;;;;5044198;28;20045;-75
2023/12/08 04:30:11;;;;;;;32.83;13.57;;;0.50;99.90;;;;;;5029237;28;20052;-74
2023/12/08 04:32:36;;;;;;;33.67;13.60;;;0.50;99.90;;;;;;5016260;28;20522;-77
2023/12/08 04:35:02;;;;;;;35.33;13.48;;;0.50;99.90;;;;;;5022666;28;20326;-72
2023/12/08 04:37:28;;;;;;;31.70;13.45;;;0.40;99.90;;;;;;5035892;28;20045;-73
2023/12/08 04:39:53;;;;;;;33.08;12.88;;;0.40;99.90;;;;;;5043665;28;20051;-74
2023/12/08 04:42:19;;;;;;;31.70;12.77;;;0.40;99.90;;;;;;5036097;28;20112;-74
2023/12/08 04:44:44;;;;;;;33.05;13.45;;;0.50;99.90;;;;;;5042280;28;20033;-72
2023/12/08 04:47:10;;;;;;;33.90;15.07;;;0.40;99.90;;;;;;5034836;28;20041;-74
2023/12/08 04:49:36;;;;;;;32.72;13.32;;;0.40;99.90;;;;;;5035940;28;20045;-72
2023/12/08 04:52:02;;;;;;;34.50;14.43;;;0.40;99.90;;;;;;5028551;28;20048;-73
2023/12/08 04:54:28;;;;;;;31.90;14.25;;;0.40;99.90;;;;;;5024606;28;20423;-72
2023/12/08 04:56:54;;;;;;;34.17;13.23;;;0.40;99.90;;;;;;5044763;28;20079;-72
2023/12/08 04:59:19;;;;;;;32.35;13.40;;;0.40;99.90;;;;;;5029738;28;20041;-71
2023/12/08 05:01:50;;;;;;;34.97;14.27;;;0.40;99.90;;;;;;5043580;28;20338;-71
2023/12/08 05:04:17;;;;;;;31.55;13.13;;;0.40;99.90;;;;;;5029967;28;20068;-71
2023/12/08 05:06:43;;;;;;;37.00;14.07;;;0.40;99.90;;;;;;5033089;28;20103;-71
2023/12/08 05:09:10;;;;;;;34.63;14.30;;;0.40;99.90;;;;;;5030235;28;20555;-73
2023/12/08 05:11:36;;;;;;;29.98;13.13;;;0.40;99.90;;;;;;5013294;28;20051;-73
2023/12/08 05:14:02;;;;;;;35.72;14.20;;;0.40;99.90;;;;;;5028598;28;20045;-73
2023/12/08 05:16:31;;;;;;;35.92;14.25;;;0.40;99.90;;;;;;5030791;28;20049;-74
2023/12/08 05:18:56;;;;;;;32.92;14.48;;;0.30;99.90;;;;;;5029061;28;20060;-73
2023/12/08 05:21:22;;;;;;;32.60;14.10;;;0.30;99.90;;;;;;5042697;28;20053;-72
2023/12/08 05:23:48;;;;;;;35.60;14.32;;;0.40;99.90;;;;;;5035642;28;22254;-71
2023/12/08 05:26:13;;;;;;;34.75;14.75;;;0.30;99.90;;;;;;5035905;28;20132;-74
2023/12/08 05:28:39;;;;;;;31.02;13.93;;;0.40;99.90;;;;;;5029977;28;20041;-72
2023/12/08 05:31:05;;;;;;;34.22;14.48;;;0.40;99.90;;;;;;5033667;28;20476;-72
2023/12/08 05:33:31;;;;;;;37.75;15.70;;;0.40;99.90;;;;;;5028188;28;20374;-71
2023/12/08 05:35:57;;;;;;;38.10;14.57;;;0.40;99.90;;;;;;5031807;28;20049;-72
2023/12/08 05:38:22;;;;;;;36.50;14.43;;;0.40;99.90;;;;;;5040725;28;20044;-70
2023/12/08 05:40:48;;;;;;;38.67;14.15;;;0.40;99.90;;;;;;5032491;28;20045;-71
2023/12/08 05:43:14;;;;;;;41.28;17.00;;;0.40;99.90;;;;;;5030857;28;20406;-72
2023/12/08 05:45:40;;;;;;;36.25;14.65;;;0.40;99.90;;;;;;5011161;28;20066;-71
2023/12/08 05:48:05;;;;;;;37.60;14.43;;;0.40;99.90;;;;;;5018223;28;20331;-70
2023/12/08 05:50:31;;;;;;;38.13;14.80;;;0.40;99.90;;;;;;5018495;28;20037;-70
2023/12/08 05:52:56;;;;;;;35.58;13.75;;;0.40;99.90;;;;;;5030402;28;20041;-69
2023/12/08 05:55:22;;;;;;;38.30;14.43;;;0.30;99.90;;;;;;5032481;28;20492;-69
2023/12/08 05:57:48;;;;;;;37.72;14.90;;;0.40;99.90;;;;;;5032575;28;20037;-68
2023/12/08 06:00:18;;;;;;;44.25;16.42;;;0.40;99.90;;;;;;5044592;28;20377;-70
2023/12/08 06:02:45;;;;;;;33.45;14.10;;;0.40;99.90;;;;;;5034104;28;20434;-69
2023/12/08 06:05:11;;;;;;;40.25;15.20;;;0.40;99.90;;;;;;5030624;28;20049;-71
2023/12/08 06:07:37;;;;;;;34.28;14.23;;;0.40;99.90;;;;;;5035698;28;20532;-68
2023/12/08 06:10:04;;;;;;;38.42;14.73;;;0.40;99.90;;;;;;5030189;28;20041;-67
2023/12/08 06:12:29;;;;;;;36.58;15.75;;;0.30;99.90;;;;;;5033982;28;20077;-69
2023/12/08 06:14:59;;;;;;;32.65;13.85;;;0.30;99.90;;;;;;5029433;28;20069;-68
2023/12/08 06:17:26;;;;;;;36.67;14.93;;;0.40;99.90;;;;;;5034625;28;20045;-69
2023/12/08 06:19:51;;;;;;;41.53;16.00;;;0.40;99.90;;;;;;5028579;28;20444;-70
2023/12/08 06:22:17;;;;;;;39.47;15.38;;;0.30;99.90;;;;;;5035669;28;20164;-67
2023/12/08 06:24:42;;;;;;;38.72;14.75;;;0.30;99.90;;;;;;5033024;28;20045;-70
2023/12/08 06:27:08;;;;;;;36.00;14.77;;;0.40;99.90;;;;;;5031896;28;20461;-70
2023/12/08 06:29:34;;;;;;;38.40;15.82;;;0.30;99.90;;;;;;5031328;28;20049;-67
2023/12/08 06:31:59;;;;;;;37.53;15.63;;;0.40;99.90;;;;;;5028249;28;20052;-70
2023/12/08 06:34:25;;;;;;;33.88;13.60;;;0.40;99.90;;;;;;5022981;28;21705;-68
2023/12/08 06:36:50;;;;;;;37.25;15.52;;;0.30;99.90;;;;;;5012892;28;20069;-69
2023/12/08 06:39:16;;;;;;;38.22;14.90;;;0.40;99.90;;;;;;5029184;28;20582;-69
2023/12/08 06:41:42;;;;;;;40.38;15.65;;;0.40;99.90;;;;;;5021623;28;20041;-69
2023/12/08 06:44:08;;;;;;;37.15;14.95;;;0.40;99.90;;;;;;5023761;28;20053;-68
2023/12/08 06:46:33;;;;;;;35.67;15.68;;;0.30;99.90;;;;;;5022781;28;20064;-68
2023/12/08 06:48:59;;;;;;;41.58;16.50;;;0.40;99.90;;;;;;5023946;28;20040;-70
2023/12/08 06:51:24;;;;;;;37.78;15.10;;;0.40;99.90;;;;;;5024968;28;20037;-70
2023/12/08 06:53:50;;;;;;;40.30;16.40;;;0.40;99.90;;;;;;5041389;28;20052;-69
2023/12/08 06:56:16;;;;;;;42.03;16.63;;;0.40;99.90;;;;;;5031618;28;20118;-69
2023/12/08 06:58:41;;;;;;;41.22;15.63;;;0.40;99.90;;;;;;5028695;28;20096;-69
2023/12/08 07:01:07;;;;;;;37.72;15.48;;;0.40;99.90;;;;;;5037026;28;20041;-69
2023/12/08 07:03:33;;;;;;;41.80;14.73;;;0.30;99.90;;;;;;5028282;28;20120;-70
2023/12/08 07:05:58;;;;;;;42.60;17.95;;;0.40;99.90;;;;;;5028951;28;20465;-71
2023/12/08 07:08:24;;;;;;;44.10;16.85;;;0.40;99.90;;;;;;5033118;28;20485;-70
2023/12/08 07:10:49;;;;;;;43.40;16.85;;;0.40;99.90;;;;;;5036905;28;20048;-67
2023/12/08 07:13:15;;;;;;;44.40;16.20;;;0.40;99.90;;;;;;5034538;28;20032;-71
2023/12/08 07:15:41;;;;;;;44.85;16.92;;;0.40;99.90;;;;;;5041427;28;20040;-70
2023/12/08 07:18:06;;;;;;;44.28;17.45;;;0.30;99.90;;;;;;5037218;28;20068;-68
2023/12/08 07:20:32;;;;;;;41.40;17.25;;;0.30;99.90;;;;;;5038903;28;20053;-69
2023/12/08 07:22:57;;;;;;;35.22;14.05;;;0.40;99.90;;;;;;5046799;28;20060;-69
2023/12/08 07:25:23;;;;;;;38.17;15.18;;;0.40;99.90;;;;;;5042955;28;20128;-71
2023/12/08 07:27:49;;;;;;;38.72;15.32;;;0.40;99.90;;;;;;5019593;28;20052;-68
2023/12/08 07:30:15;;;;;;;41.72;16.63;;;0.30;99.90;;;;;;5036242;28;20088;-68
2023/12/08 07:32:40;;;;;;;39.83;15.98;;;0.40;99.90;;;;;;5042443;28;20041;-69
2023/12/08 07:35:07;;;;;;;43.53;16.35;;;0.40;99.90;;;;;;5039086;28;20033;-69
2023/12/08 07:37:32;;;;;;;42.60;16.63;;;0.40;99.90;;;;;;5040743;28;20045;-69
2023/12/08 07:39:58;;;;;;;41.40;15.85;;;0.40;99.90;;;;;;5039953;28;20045;-71
2023/12/08 07:42:24;;;;;;;42.25;16.05;;;0.40;99.90;;;;;;5026041;28;20039;-68
2023/12/08 07:44:52;;;;;;;41.88;15.60;;;0.40;99.90;;;;;;5039823;28;20199;-70
2023/12/08 07:47:18;;;;;;;43.97;17.52;;;0.50;99.90;;;;;;5022070;28;20055;-69
2023/12/08 07:49:44;;;;;;;41.08;16.45;;;0.40;99.90;;;;;;5046715;28;20033;-70
2023/12/08 07:52:10;;;;;;;45.78;16.88;;;0.50;99.90;;;;;;5043592;28;20557;-68
2023/12/08 07:54:36;;;;;;;47.55;17.20;;;0.40;99.90;;;;;;5024486;28;20080;-69
2023/12/08 07:57:01;;;;;;;40.03;16.63;;;0.50;99.90;;;;;;5043070;28;20420;-69
2023/12/08 07:59:27;;;;;;;42.10;17.13;;;0.50;99.90;;;;;;5037402;28;20520;-69
2023/12/08 08:01:53;;;;;;;42.80;16.70;;;0.50;99.90;;;;;;5017433;28;20450;-69
2023/12/08 08:04:18;;;;;;;42.08;17.08;;;0.50;99.90;;;;;;5047890;28;20621;-68
2023/12/08 08:06:44;;;;;;;43.88;17.60;;;0.50;99.90;;;;;;5035515;28;20037;-69
2023/12/08 08:09:09;;;;;;;41.05;16.25;;;0.40;99.90;;;;;;5033530;28;20363;-68
2023/12/08 08:11:35;;;;;;;46.05;16.17;;;0.50;99.90;;;;;;5038297;28;20049;-69
2023/12/08 08:14:01;;;;;;;46.70;17.50;;;0.40;99.90;;;;;;5031259;28;20045;-68
2023/12/08 08:16:26;;;;;;;43.75;17.05;;;0.50;99.90;;;;;;5037578;28;20465;-68
2023/12/08 08:18:52;;;;;;;43.42;17.40;;;0.50;99.90;;;;;;5047006;28;20037;-68
2023/12/08 08:21:18;;;;;;;42.42;16.05;;;0.50;99.90;;;;;;5045718;28;20334;-68
2023/12/08 08:23:43;;;;;;;44.33;17.40;;;0.50;99.90;;;;;;5051770;28;20574;-69
2023/12/08 08:26:09;;;;;;;43.75;18.45;;;0.50;99.90;;;;;;5039150;28;20033;-68
2023/12/08 08:28:35;;;;;;;44.05;16.95;;;0.50;99.90;;;;;;5031268;28;20505;-68
2023/12/08 08:31:01;;;;;;;45.88;16.98;;;0.50;99.90;;;;;;5044308;28;20076;-70
2023/12/08 08:33:26;;;;;;;42.63;16.67;;;0.50;99.90;;;;;;5036723;28;21807;-67
2023/12/08 08:35:52;;;;;;;43.55;17.00;;;0.50;99.90;;;;;;5031582;28;20761;-67
2023/12/08 08:38:18;;;;;;;40.10;17.55;;;0.50;99.90;;;;;;5037822;28;20043;-67
2023/12/08 08:40:43;;;;;;;35.80;14.80;;;0.60;99.90;;;;;;5031067;28;20049;-67
2023/12/08 08:43:09;;;;;;;36.22;14.90;;;0.50;99.90;;;;;;5029967;28;20062;-68
2023/12/08 08:45:35;;;;;;;46.20;16.52;;;0.50;99.90;;;;;;5031209;28;20030;-67
2023/12/08 08:48:01;;;;;;;46.15;17.77;;;0.50;99.90;;;;;;5013733;28;20136;-67
2023/12/08 08:50:27;;;;;;;45.47;17.42;;;0.50;99.90;;;;;;5030498;28;20048;-68
2023/12/08 08:52:52;;;;;;;43.35;17.30;;;0.50;99.90;;;;;;5017340;28;20045;-68
2023/12/08 08:55:18;;;;;;;43.60;16.55;;;0.60;99.90;;;;;;5034936;28;20045;-68
2023/12/08 08:57:44;;;;;;;42.05;16.70;;;0.60;99.90;;;;;;5048578;28;20041;-67
2023/12/08 09:00:12;;;;;;;43.05;16.48;;;0.50;99.90;;;;;;5038297;28;20034;-68
2023/12/08 09:02:38;;;;;;;47.28;17.83;;;0.50;99.90;;;;;;5033585;28;20037;-68
2023/12/08 09:05:05;;;;;;;44.33;17.20;;;0.50;99.90;;;;;;5029022;28;20144;-67
2023/12/08 09:07:30;;;;;;;46.55;17.23;;;0.50;99.90;;;;;;5046190;28;20052;-67
2023/12/08 09:09:56;;;;;;;42.35;17.17;;;0.50;99.90;;;;;;5024287;28;20454;-68
2023/12/08 09:12:22;;;;;;;42.58;17.30;;;0.60;99.90;;;;;;5030941;28;20041;-68
2023/12/08 09:14:48;;;;;;;45.22;17.45;;;0.50;99.90;;;;;;5038659;28;20098;-68
2023/12/08 09:17:14;;;;;;;44.30;16.48;;;0.50;99.90;;;;;;5034933;28;20041;-68
2023/12/08 09:19:39;;;;;;;47.88;18.05;;;0.50;99.90;;;;;;5030130;28;20120;-68
2023/12/08 09:22:05;;;;;;;45.28;17.10;;;0.50;99.90;;;;;;5029467;28;20156;-68
2023/12/08 09:24:31;;;;;;;39.90;15.80;;;0.50;99.90;;;;;;5032889;28;20033;-68
2023/12/08 09:26:56;;;;;;;41.45;16.48;;;0.50;99.90;;;;;;5045039;28;20052;-68
2023/12/08 09:29:22;;;;;;;48.22;17.38;;;0.60;99.90;;;;;;5044323;28;20068;-69
2023/12/08 09:31:48;;;;;;;42.22;17.08;;;0.60;99.90;;;;;;5050518;28;20601;-69
2023/12/08 09:34:14;;;;;;;41.13;15.52;;;0.60;99.90;;;;;;5048212;28;20044;-68
2023/12/08 09:36:40;;;;;;;40.50;17.05;;;0.60;99.90;;;;;;5043753;28;20045;-68
2023/12/08 09:39:08;;;;;;;42.95;16.50;;;0.70;99.90;;;;;;5031947;28;20365;-69
2023/12/08 09:41:37;;;;;;;43.50;16.63;;;0.70;99.90;;;;;;5037033;28;20049;-69
2023/12/08 09:44:05;;;;;;;46.53;18.05;;;0.70;99.90;;;;;;5042010;28;20045;-68
2023/12/08 09:46:34;;;;;;;43.38;16.55;;;0.60;99.90;;;;;;5045924;28;20033;-69
2023/12/08 09:49:01;;;;;;;45.03;18.60;;;0.60;99.90;;;;;;5044068;28;20090;-69
2023/12/08 09:51:28;;;;;;;46.13;18.77;;;0.60;99.90;;;;;;5029951;28;20480;-69
2023/12/08 09:53:54;;;;;;;45.83;16.55;;;0.60;99.90;;;;;;5032765;28;20130;-69
2023/12/08 09:56:21;;;;;;;40.92;16.17;;;0.60;99.90;;;;;;5033777;28;20338;-68
2023/12/08 09:58:47;;;;;;;43.45;17.23;;;0.70;99.90;;;;;;5043252;28;20041;-69
2023/12/08 10:01:13;;;;;;;51.47;17.83;;;0.60;99.90;;;;;;5035262;28;20473;-69
2023/12/08 10:03:45;;;;;;;46.05;17.20;;;0.60;99.90;;;;;;5029599;28;20038;-68
2023/12/08 10:06:11;;;;;;;45.08;17.25;;;0.60;99.90;;;;;;5045717;28;20151;-68
2023/12/08 10:08:37;;;;;;;51.53;17.30;;;0.60;99.90;;;;;;5035934;28;20046;-68
2023/12/08 10:11:05;;;;;;;45.35;17.52;;;0.70;99.90;;;;;;5042861;28;20043;-68
2023/12/08 10:13:31;;;;;;;49.45;17.48;;;0.70;99.90;;;;;;5027439;28;20105;-68
2023/12/08 10:15:57;;;;;;;45.67;17.48;;;0.70;99.90;;;;;;5029769;28;20490;-70
2023/12/08 10:18:23;;;;;;;45.47;17.52;;;0.70;99.90;;;;;;5032443;28;20056;-68
2023/12/08 10:20:49;;;;;;;44.45;18.80;;;0.70;99.90;;;;;;5028405;28;21175;-69
2023/12/08 10:23:22;;;;;;;47.30;16.60;;;0.70;99.90;;;;;;5042584;28;20131;-69
2023/12/08 10:25:48;;;;;;;49.45;17.60;;;0.70;99.90;;;;;;5020271;28;20041;-68
2023/12/08 10:28:14;;;;;;;49.15;17.02;;;0.70;99.90;;;;;;5038867;28;20028;-68
2023/12/08 10:30:51;;;;;;;44.33;16.83;;;0.70;99.90;;;;;;5047542;28;20473;-70
2023/12/08 10:33:21;;;;;;;46.60;15.93;;;0.70;99.90;;;;;;5034160;28;20819;-69
2023/12/08 10:35:47;;;;;;;47.08;17.70;;;0.70;99.90;;;;;;5047812;28;20095;-70
2023/12/08 10:38:13;;;;;;;41.92;15.48;;;0.70;99.90;;;;;;5047292;28;20457;-70
2023/12/08 10:40:51;;;;;;;46.30;17.30;;;0.70;99.90;;;;;;5030051;28;20120;-69
2023/12/08 10:43:23;;;;;;;41.78;17.20;;;0.70;99.90;;;;;;5034718;28;20827;-71
2023/12/08 10:45:53;;;;;;;42.33;17.05;;;0.70;99.90;;;;;;5012652;28;20111;-69
2023/12/08 10:48:22;;;;;;;42.88;16.00;;;0.70;99.90;;;;;;5027681;28;20037;-71
2023/12/08 10:50:49;;;;;;;39.70;15.35;;;0.70;99.90;;;;;;5027916;28;20033;-71
2023/12/08 10:53:19;;;;;;;43.47;16.60;;;0.80;99.90;;;;;;5031798;28;20052;-71
2023/12/08 10:55:57;;;;;;;47.88;17.58;;;0.80;99.90;;;;;;5039893;28;20048;-69
2023/12/08 10:58:22;;;;;;;47.63;16.63;;;0.80;99.90;;;;;;5027375;28;20049;-69
2023/12/08 11:00:52;;;;;;;45.25;17.17;;;0.80;99.90;;;;;;5012457;28;20116;-69
2023/12/08 11:03:20;;;;;;;;;;;0.80;99.90;;;;;;5031434;28;20060;-70
2023/12/08 11:05:49;;;;;;;46.42;16.65;;;0.80;99.90;;;;;;5041036;28;19921;-69
2023/12/08 11:08:18;;;;;;;47.75;18.30;;;0.80;99.90;;;;;;5037041;28;20046;-70
2023/12/08 11:10:49;;;;;;;53.75;18.67;;;0.70;99.90;;;;;;5022946;28;20149;-69
2023/12/08 11:13:27;;;;;;;49.08;17.50;;;0.80;99.90;;;;;;5030058;28;20045;-69
2023/12/08 11:16:11;;;;;;;46.97;18.52;;;0.80;99.90;;;;;;5012127;28;20090;-69
2023/12/08 11:18:38;;;;;;;49.40;16.75;;;0.80;99.90;;;;;;5045549;28;20485;-71
2023/12/08 11:21:10;;;;;;;54.97;18.02;;;0.80;99.90;;;;;;5031058;28;20041;-74
2023/12/08 11:23:39;;;;;;;51.38;17.48;;;0.80;99.90;;;;;;5039548;28;20102;-69
2023/12/08 11:26:28;;;;;;;51.95;19.08;;;0.80;99.90;;;;;;5027300;28;20060;-69
2023/12/08 11:29:21;;;;;;;51.13;18.57;;;0.90;99.90;;;;;;5041791;28;20529;-70
2023/12/08 11:32:07;;;;;;;55.00;19.63;;;0.90;99.90;;;;;;5030243;28;20042;-72
2023/12/08 11:35:00;;;;;;;60.10;20.58;;;0.90;99.90;;;;;;5031420;28;20414;-70
2023/12/08 11:37:29;;;;;;;57.35;18.83;;;0.90;99.90;;;;;;5034846;28;20412;-68
2023/12/08 11:40:11;;;;;;;60.22;21.20;;;0.90;99.90;;;;;;5050924;28;20047;-72
2023/12/08 11:42:39;;;;;;;61.20;20.33;;;0.90;99.90;;;;;;5048070;28;20048;-72
2023/12/08 11:45:10;;;;;;;73.88;22.88;;;0.90;99.90;;;;;;5031143;28;20437;-72
2023/12/08 11:47:37;;;;;;;67.53;21.55;;;0.90;99.90;;;;;;5032769;28;20048;-71
2023/12/08 11:50:03;;;;;;;66.53;22.15;;;0.90;99.90;;;;;;5033557;28;20037;-73
2023/12/08 11:52:33;;;;;;;74.40;22.17;;;0.90;99.90;;;;;;5028130;28;20051;-72
2023/12/08 11:54:59;;;;;;;73.88;22.88;;;0.90;99.90;;;;;;5011410;28;20053;-73
2023/12/08 11:57:25;;;;;;;71.20;22.58;;;0.90;99.90;;;;;;5011245;28;20045;-72
2023/12/08 11:59:51;;;;;;;73.90;24.63;;;0.90;99.90;;;;;;5029655;28;20043;-72
2023/12/08 12:02:17;;;;;;;67.75;24.10;;;1.00;99.90;;;;;;5035132;28;20097;-72
2023/12/08 12:04:43;;;;;;;83.93;23.65;;;1.00;99.90;;;;;;5026754;28;20091;-71
2023/12/08 12:07:09;;;;;;;73.57;23.42;;;1.00;99.90;;;;;;5027738;28;20038;-72
2023/12/08 12:09:35;;;;;;;74.88;22.45;;;1.00;99.90;;;;;;5029393;28;20101;-72
2023/12/08 12:12:13;;;;;;;80.97;24.17;;;1.00;99.90;;;;;;5028194;28;20041;-72
2023/12/08 12:14:45;;;;;;;67.28;22.50;;;1.00;99.90;;;;;;5032063;28;20043;-73
2023/12/08 12:17:12;;;;;;;70.18;22.95;;;1.00;99.90;;;;;;5029098;28;20041;-71
2023/12/08 12:19:37;;;;;;;98.53;25.38;;;1.00;99.90;;;;;;5028296;28;20087;-72
2023/12/08 12:22:04;;;;;;;71.15;21.83;;;1.10;99.90;;;;;;5025849;28;20045;-71
2023/12/08 12:24:30;;;;;;;87.32;26.17;;;1.10;99.90;;;;;;5029907;28;20071;-72
2023/12/08 12:26:56;;;;;;;85.50;24.77;;;1.00;99.90;;;;;;5043969;28;20069;-73
2023/12/08 12:29:23;;;;;;;84.20;25.15;;;1.00;99.90;;;;;;5035690;28;20794;-72
2023/12/08 12:31:48;;;;;;;90.28;24.42;;;1.00;99.90;;;;;;5046503;28;20074;-72
2023/12/08 12:34:15;;;;;;;88.80;26.42;;;1.10;99.90;;;;;;5041525;28;20348;-72
2023/12/08 12:36:41;;;;;;;90.70;25.88;;;1.10;99.90;;;;;;5048373;28;20045;-71